Terminal Aerodrome Forecast
Issued by NWS Detroit/Pontiac, MI

Home | Current Version | Previous Version | Text Only | Print | Product List | Glossary On
Versions: 1 2 3 4 5 6 7 8 9 10 11 12 13 14 15 16
000
FTUS43 KDTX 221127
TAFFNT
TAF
KFNT 221127Z 2212/2312 22013G20KT 6SM -SHRA OVC040
      TEMPO 2213/2215 3SM TSRA OVC025CB
     FM221500 26015G25KT P6SM VCSH BKN025 OVC040
     FM222000 28013G20KT P6SM BKN040
     FM222300 30010KT P6SM SCT040
     FM231000 26005KT P6SM SCT025=

USA.gov is the U.S. government's official web portal to all federal, state and local government web resources and services.